Latest Coastal Weather Observations for Pirlangimpi (Garden Point)

IDD60701

Issued at 11:41 am CST Monday 29 May 2017 (issued every 10 minutes, with the page automatically refreshed every 10 minutes)

About coastal observations | Map of coastal stations | Coastal observations for NT | Marine services | Other Formats
Station Details ID: 014142 Name: PIRLANGIMPI AIRPORT Lat: -11.40 Lon: 130.42 Height: 18.3 m
Data from the previous 72 hours. | See also: Recent months at Pirlangimpi (Garden Point)
Date/Time
CST
Temp
°C
Wind Pressure Rain since
9am
mm
Weather Cloud Vis
km
Sea
Height
m
Swell
Dir  Spd
kts
Gust
kts
hPa Trend Height
m
Period
s
Dir
29/11:30am 31.0 E 9 15 1012.6 - 0.0 - - - - - - -
29/11:00am 30.4 E 10 18 1012.7 - 0.0 - - - - - - -
29/10:30am 29.8 E 10 18 1012.9 - 0.0 - - - - - - -
29/10:00am 28.9 E 9 16 1013.0 - 0.0 - - - - - - -
29/09:30am 27.8 ESE 6 11 1013.0 - 0.0 - - - - - - -
29/09:00am 26.5 ESE 4 7 1012.8 - 0.0 - - - - - - -
29/08:30am 25.8 ESE 3 6 1012.7 - 0.0 - - - - - - -
29/08:00am 25.1 E 3 4 1012.3 - 0.0 - - - - - - -
29/07:30am 24.5 ESE 4 6 1011.9 - 0.0 - - - - - - -
29/07:00am 24.2 E 3 5 1011.5 - 0.0 - - - - - - -
29/06:30am 24.3 ESE 4 7 1011.5 - 0.0 - - - - - - -
29/06:00am 24.3 E 4 6 1011.2 - 0.0 - - - - - - -
29/05:30am 23.9 ESE 2 4 1011.2 - 0.0 - - - - - - -
29/05:00am 23.6 E 2 3 1011.0 - 0.0 - - - - - - -
29/04:30am 23.2 E 2 2 1011.0 - 0.0 - - - - - - -
29/04:00am 23.9 ESE 3 4 1011.1 - 0.0 - - - - - - -
29/03:30am 23.1 ESE 1 3 1011.1 - 0.0 - - - - - - -
29/03:00am 23.6 ESE 2 3 1011.1 - 0.0 - - - - - - -
29/02:30am 23.8 SE 2 2 1011.2 - 0.0 - - - - - - -
29/02:00am 23.6 SSE 2 2 1011.5 - 0.0 - - - - - - -
29/01:30am 24.0 ESE 1 1 1011.5 - 0.0 - - - - - - -
29/01:00am 24.4 E 2 3 1011.5 - 0.0 - - - - - - -
29/12:30am 24.6 NE 3 5 1011.6 - 0.0 - - - - - - -
29/12:00am 25.2 NE 4 6 1011.8 - 0.0 - - - - - - -
 
Date/Time
CST
Temp
°C
Wind Pressure Rain since
9am
mm
Weather Cloud Vis
km
Sea
Height
m
Swell
Dir  Spd
kts
Gust
kts
hPa Trend Height
m
Period
s
Dir
28/11:30pm 26.2 E 4 6 1011.9 - 0.0 - - - - - - -
28/11:00pm 26.4 E 4 5 1012.1 - 0.0 - - - - - - -
28/10:30pm 26.5 E 3 6 1012.1 - 0.0 - - - - - - -
28/10:00pm 26.7 E 4 6 1012.1 - 0.0 - - - - - - -
28/09:30pm 26.9 E 4 7 1011.7 - 0.0 - - - - - - -
28/09:00pm 27.1 ESE 4 6 1011.6 - 0.0 - - - - - - -
28/08:30pm 26.8 ESE 3 4 1011.3 - 0.0 - - - - - - -
28/08:00pm 26.3 ESE 2 4 1011.0 - 0.0 - - - - - - -
28/07:30pm 26.3 SE 1 2 1010.8 - 0.0 - - - - - - -
28/07:00pm 26.9 ESE 2 2 1010.5 - 0.0 - - - - - - -
28/06:30pm 27.5 ESE 3 4 1010.1 - 0.0 - - - - - - -
28/06:00pm 28.2 ESE 4 6 1010.1 - 0.0 - - - - - - -
28/05:30pm 28.8 ESE 5 8 1009.9 - 0.0 - - - - - - -
28/05:00pm 29.4 ESE 6 10 1009.8 - 0.0 - - - - - - -
28/04:30pm 30.3 E 5 10 1009.6 - 0.0 - - - - - - -
28/04:00pm 30.7 ESE 6 8 1009.6 - 0.0 - - - - - - -
28/03:30pm 31.1 E 6 11 1009.5 - 0.0 - - - - - - -
28/03:00pm 30.9 E 8 12 1009.7 - 0.0 - - - - - - -
28/02:30pm 32.2 E 6 11 1009.8 - 0.0 - - - - - - -
28/02:00pm 32.5 E 6 13 1009.9 - 0.0 - - - - - - -
28/01:30pm 32.2 E 9 14 1010.3 - 0.0 - - - - - - -
28/01:00pm 31.6 E 7 12 1010.7 - 0.0 - - - - - - -
28/12:30pm 30.5 ESE 7 12 1011.3 - 0.0 - - - - - - -
28/12:00pm 31.5 E 8 13 1011.7 - 0.0 - - - - - - -
28/11:30am 30.0 ESE 7 11 1012.1 - 0.0 - - - - - - -
28/11:00am 29.9 E 6 11 1012.3 - 0.0 - - - - - - -
28/10:30am 29.5 E 10 17 1012.5 - 0.0 - - - - - - -
28/10:00am 29.1 E 10 17 1012.6 - 0.0 - - - - - - -
28/09:30am 28.0 ESE 6 10 1012.7 - 0.0 - - - - - - -
28/09:00am 27.1 ESE 6 11 1012.7 - 0.0 - - - - - - -
28/08:30am 25.6 ESE 4 6 1012.4 - 0.0 - - - - - - -
28/08:00am 24.5 E 3 5 1011.9 - 0.0 - - - - - - -
28/07:30am 24.1 ESE 3 5 1011.5 - 0.0 - - - - - - -
28/07:00am 24.0 ESE 4 7 1011.1 - 0.0 - - - - - - -
28/06:30am 23.9 ESE 4 6 1010.9 - 0.0 - - - - - - -
28/06:00am 23.6 E 3 5 1010.8 - 0.0 - - - - - - -
28/05:30am 23.7 ENE 4 5 1010.6 - 0.0 - - - - - - -
28/05:00am 23.7 ENE 4 7 1010.6 - 0.0 - - - - - - -
28/04:30am 23.6 E 4 6 1010.6 - 0.0 - - - - - - -
28/04:00am 23.5 E 4 5 1010.8 - 0.0 - - - - - - -
28/03:30am 23.5 E 4 7 1011.0 - 0.0 - - - - - - -
28/03:00am 22.6 E 4 6 1011.2 - 0.0 - - - - - - -
28/02:30am 21.3 CALM 0 2 1011.4 - 0.0 - - - - - - -
28/02:00am 21.5 CALM 0 0 1011.8 - 0.0 - - - - - - -
28/01:30am 21.5 CALM 0 0 1012.0 - 0.0 - - - - - - -
28/01:00am 21.7 CALM 0 0 1012.1 - 0.0 - - - - - - -
28/12:30am 21.7 CALM 0 0 1012.1 - 0.0 - - - - - - -
28/12:00am 21.8 CALM 0 0 1012.3 - 0.0 - - - - - - -
 
Date/Time
CST
Temp
°C
Wind Pressure Rain since
9am
mm
Weather Cloud Vis
km
Sea
Height
m
Swell
Dir  Spd
kts
Gust
kts
hPa Trend Height
m
Period
s
Dir
27/11:30pm 21.8 CALM 0 0 1012.5 - 0.0 - - - - - - -
27/11:00pm 22.0 CALM 0 0 1012.7 - 0.0 - - - - - - -
27/10:30pm 22.2 CALM 0 0 1012.6 - 0.0 - - - - - - -
27/10:00pm 22.5 CALM 0 0 1012.5 - 0.0 - - - - - - -
27/09:30pm 22.7 ESE 1 2 1012.5 - 0.0 - - - - - - -
27/09:00pm 23.1 CALM 0 0 1012.3 - 0.0 - - - - - - -
27/08:30pm 24.1 ESE 1 1 1012.0 - 0.0 - - - - - - -
27/08:00pm 23.7 ENE 1 3 1011.6 - 0.0 - - - - - - -
27/07:30pm 24.3 CALM 0 0 1011.5 - 0.0 - - - - - - -
27/07:00pm 25.0 CALM 0 2 1011.1 - 0.0 - - - - - - -
27/06:30pm 26.8 ENE 3 5 1010.8 - 0.0 - - - - - - -
27/06:00pm 27.8 ENE 4 6 1010.5 - 0.0 - - - - - - -
27/05:30pm 28.5 ENE 6 10 1010.1 - 0.0 - - - - - - -
27/05:00pm 29.9 ENE 7 12 1009.8 - 0.0 - - - - - - -
27/04:30pm 31.7 ENE 7 10 1009.6 - 0.0 - - - - - - -
27/04:00pm 31.9 E 7 12 1009.6 - 0.0 - - - - - - -
27/03:30pm 32.6 E 8 14 1009.7 - 0.0 - - - - - - -
27/03:00pm 32.6 E 8 13 1009.8 - 0.0 - - - - - - -
27/02:30pm 32.6 E 7 13 1010.1 - 0.0 - - - - - - -
27/02:00pm 32.4 ESE 8 14 1010.3 - 0.0 - - - - - - -
27/01:30pm 32.0 E 8 14 1010.5 - 0.0 - - - - - - -
27/01:00pm 32.1 E 8 13 1010.8 - 0.0 - - - - - - -
27/12:30pm 31.9 E 9 14 1011.3 - 0.0 - - - - - - -
27/12:00pm 31.6 E 7 13 1011.6 - 0.0 - - - - - - -
27/11:30am 30.1 E 9 19 1012.1 - 0.0 - - - - - - -
27/11:00am 29.5 ESE 9 14 1012.4 - 0.0 - - - - - - -
27/10:30am 29.1 ESE 10 17 1012.4 - 0.0 - - - - - - -
27/10:00am 28.4 E 8 14 1012.6 - 0.0 - - - - - - -
27/09:30am 27.6 E 8 12 1012.7 - 0.0 - - - - - - -
27/09:00am 27.1 E 6 9 1012.6 - 0.0 - - - - - - -
27/08:30am 25.1 ESE 5 8 1012.3 - 0.0 - - - - - - -
27/08:00am 24.2 E 6 8 1012.2 - 0.0 - - - - - - -
27/07:30am 23.5 E 5 9 1011.9 - 0.0 - - - - - - -
27/07:00am 23.5 E 5 8 1011.8 - 0.0 - - - - - - -
27/06:30am 23.7 E 5 7 1011.5 - 0.0 - - - - - - -
27/06:00am 23.7 E 5 6 1011.3 - 0.0 - - - - - - -
27/05:30am 23.8 E 4 6 1011.3 - 0.0 - - - - - - -
27/05:00am 23.8 E 5 6 1011.1 - 0.0 - - - - - - -
27/04:30am 23.9 E 4 6 1011.1 - 0.0 - - - - - - -
27/04:00am 23.8 E 4 6 1010.9 - 0.0 - - - - - - -
27/03:30am 24.0 E 5 7 1011.2 - 0.0 - - - - - - -
27/03:00am 23.9 E 4 7 1011.5 - 0.0 - - - - - - -
27/02:30am 24.1 E 4 6 1011.9 - 0.0 - - - - - - -
27/02:00am 23.9 E 4 5 1012.0 - 0.0 - - - - - - -
27/01:30am 23.7 E 4 5 1012.1 - 0.0 - - - - - - -
27/01:00am 22.8 E 4 5 1012.2 - 0.0 - - - - - - -
27/12:30am 22.3 E 2 3 1012.3 - 0.0 - - - - - - -
27/12:00am 22.4 E 2 3 1012.2 - 0.0 - - - - - - -
 
Date/Time
CST
Temp
°C
Wind Pressure Rain since
9am
mm
Weather Cloud Vis
km
Sea
Height
m
Swell
Dir  Spd
kts
Gust
kts
hPa Trend Height
m
Period
s
Dir
26/11:30pm 22.8 E 3 4 1012.2 - 0.0 - - - - - - -
26/11:00pm 22.4 E 2 3 1012.4 - 0.0 - - - - - - -
26/10:30pm 23.2 ESE 2 2 1012.5 - 0.0 - - - - - - -
26/10:00pm 23.4 SE 2 3 1012.5 - 0.0 - - - - - - -
26/09:30pm 23.7 ESE 2 2 1012.5 - 0.0 - - - - - - -
26/09:00pm 24.1 E 2 3 1012.2 - 0.0 - - - - - - -
26/08:30pm 24.0 E 3 3 1012.2 - 0.0 - - - - - - -
26/08:00pm 24.2 ESE 2 3 1012.0 - 0.0 - - - - - - -
26/07:30pm 25.0 ESE 2 3 1011.7 - 0.0 - - - - - - -
26/07:00pm 26.0 ESE 2 3 1011.4 - 0.0 - - - - - - -
26/06:30pm 27.0 ESE 3 4 1011.2 - 0.0 - - - - - - -
26/06:00pm 28.0 E 4 6 1010.9 - 0.0 - - - - - - -
26/05:30pm 28.9 E 6 11 1010.5 - 0.0 - - - - - - -
26/05:00pm 29.6 ESE 6 9 1010.1 - 0.0 - - - - - - -
26/04:30pm 30.9 E 7 9 1009.9 - 0.0 - - - - - - -
26/04:00pm 30.6 ESE 7 12 1009.7 - 0.0 - - - - - - -
26/03:30pm 31.4 E 7 13 1009.6 - 0.0 - - - - - - -
26/03:00pm 31.1 ENE 6 11 1009.7 - 0.0 - - - - - - -
26/02:30pm 32.1 ENE 6 11 1009.9 - 0.0 - - - - - - -
26/02:00pm 31.7 ESE 6 10 1010.1 - 0.0 - - - - - - -
26/01:30pm 32.4 E 6 10 1010.6 - 0.0 - - - - - - -
26/01:00pm 32.2 E 5 9 1010.9 - 0.0 - - - - - - -
26/12:30pm 31.6 E 6 10 1011.4 - 0.0 - - - - - - -
26/12:00pm 31.3 ENE 6 10 1011.7 - 0.0 - - - - - - -

Other Formats:

Comma delimited format used in spreadsheet applications
http://www.bom.gov.au/fwo/IDD60701/IDD60701.94119.axf

JavaScript Object Notation format (JSON) in row-major order
http://www.bom.gov.au/fwo/IDD60701/IDD60701.94119.json